createdAt,value
2022-10-11T00:02:48.160Z,64.94
2022-10-11T00:06:09.420Z,65.09
2022-10-11T00:09:29.549Z,65.45
2022-10-11T00:13:12.234Z,64.91
2022-10-11T00:16:33.588Z,64.83
2022-10-11T00:19:56.591Z,64.70
2022-10-11T00:23:17.166Z,64.89
2022-10-11T00:26:37.994Z,64.51
2022-10-11T00:29:56.169Z,64.81
2022-10-11T00:33:15.476Z,64.71
2022-10-11T00:37:24.447Z,64.51
2022-10-11T00:40:46.798Z,64.30
2022-10-11T00:44:17.040Z,64.30
2022-10-11T00:47:36.386Z,64.57
2022-10-11T00:51:01.611Z,64.82
2022-10-11T00:54:25.458Z,65.08
2022-10-11T00:57:49.952Z,65.31
2022-10-11T01:01:11.547Z,65.21
2022-10-11T01:04:33.305Z,65.17
2022-10-11T01:07:55.047Z,65.24
2022-10-11T01:11:20.501Z,65.07
2022-10-11T01:15:16.717Z,65.32
2022-10-11T01:18:45.837Z,65.49
2022-10-11T01:22:21.529Z,65.56
2022-10-11T01:25:59.522Z,65.59
2022-10-11T01:29:30.715Z,65.95
2022-10-11T01:33:02.173Z,66.05
2022-10-11T01:36:29.023Z,65.45
2022-10-11T01:39:53.835Z,65.37
2022-10-11T01:43:15.800Z,65.34
2022-10-11T01:46:38.474Z,65.17
2022-10-11T01:50:01.170Z,65.11
2022-10-11T01:53:41.573Z,64.82
2022-10-11T01:57:20.600Z,64.85
2022-10-11T02:00:51.920Z,65.28
2022-10-11T02:04:22.673Z,65.04
2022-10-11T02:07:54.011Z,65.04
2022-10-11T02:11:21.131Z,64.98
2022-10-11T02:14:44.286Z,64.72
2022-10-11T02:18:13.052Z,64.81
2022-10-11T02:21:38.608Z,64.88
2022-10-11T02:25:04.091Z,65.34
2022-10-11T02:28:31.516Z,65.63
2022-10-11T02:31:53.975Z,65.70
2022-10-11T02:35:13.695Z,65.53
2022-10-11T02:38:40.144Z,66.17
2022-10-11T02:42:05.959Z,66.38
2022-10-11T02:45:33.208Z,66.55
2022-10-11T02:48:55.833Z,66.79
2022-10-11T02:52:15.966Z,66.14
2022-10-11T02:55:37.993Z,66.08
2022-10-11T02:58:56.916Z,65.94
2022-10-11T03:02:18.583Z,66.22
2022-10-11T03:06:00.897Z,66.31
2022-10-11T03:09:21.040Z,66.81
2022-10-11T03:12:40.777Z,66.49
2022-10-11T03:16:03.649Z,66.71
2022-10-11T03:19:25.619Z,66.90
2022-10-11T03:22:49.368Z,66.58
2022-10-11T03:26:10.332Z,66.31
2022-10-11T03:29:31.027Z,66.60
2022-10-11T03:32:52.552Z,66.37
2022-10-11T03:36:12.207Z,66.34
2022-10-11T03:39:29.292Z,66.29
2022-10-11T03:42:50.147Z,67.04
2022-10-11T03:46:10.956Z,66.68
2022-10-11T03:49:33.516Z,66.80
2022-10-11T03:52:54.430Z,66.53
2022-10-11T03:56:17.917Z,66.21
2022-10-11T03:59:41.261Z,65.98
2022-10-11T04:03:05.052Z,65.73
2022-10-11T04:06:25.386Z,65.88
2022-10-11T04:09:46.298Z,65.85
2022-10-11T04:13:05.445Z,65.89
2022-10-11T04:16:25.990Z,66.01
2022-10-11T04:19:47.184Z,66.33
2022-10-11T04:23:06.990Z,66.15
2022-10-11T04:26:26.676Z,65.97
2022-10-11T04:29:46.870Z,65.75
2022-10-11T04:33:08.660Z,66.13
2022-10-11T04:36:32.929Z,65.96
2022-10-11T04:39:54.565Z,66.14
2022-10-11T04:43:17.678Z,66.90
2022-10-11T04:46:38.352Z,66.47
2022-10-11T04:49:58.218Z,66.18
2022-10-11T04:53:18.134Z,66.08
2022-10-11T04:56:40.965Z,66.85
2022-10-11T05:00:01.186Z,67.73
2022-10-11T05:03:22.934Z,67.69
2022-10-11T05:06:44.829Z,67.33
2022-10-11T05:10:06.786Z,66.81
2022-10-11T05:13:28.217Z,66.81
2022-10-11T05:16:48.093Z,66.71
2022-10-11T05:20:11.026Z,67.26
2022-10-11T05:23:34.911Z,67.10
2022-10-11T05:26:56.965Z,66.62
2022-10-11T05:30:20.027Z,66.91
2022-10-11T05:33:40.372Z,66.69
2022-10-11T05:37:01.228Z,66.99
2022-10-11T05:40:21.172Z,67.26
2022-10-11T05:43:44.530Z,67.06
2022-10-11T05:47:05.710Z,66.97
2022-10-11T05:50:28.934Z,66.75
2022-10-11T05:53:52.348Z,66.88
2022-10-11T05:57:10.787Z,66.84
2022-10-11T06:00:31.509Z,66.66
2022-10-11T06:03:52.763Z,66.60
2022-10-11T06:07:15.036Z,66.54
2022-10-11T06:10:35.442Z,66.08
2022-10-11T06:13:58.159Z,66.03
2022-10-11T06:17:31.736Z,66.56
2022-10-11T06:21:07.881Z,67.40
2022-10-11T06:24:41.691Z,67.46
2022-10-11T06:28:21.613Z,67.26
2022-10-11T06:31:59.945Z,67.06
2022-10-11T06:35:37.660Z,67.00
2022-10-11T06:39:20.731Z,67.17
2022-10-11T06:42:58.720Z,67.17
2022-10-11T06:46:20.056Z,67.25
2022-10-11T06:49:54.055Z,67.50
2022-10-11T06:53:30.833Z,66.96
2022-10-11T06:57:06.143Z,66.66
2022-10-11T07:00:45.051Z,66.54
2022-10-11T07:04:16.633Z,66.26
2022-10-11T07:07:51.475Z,66.05
2022-10-11T07:11:29.938Z,66.05
2022-10-11T07:15:10.375Z,65.81
2022-10-11T07:19:00.133Z,65.77
2022-10-11T07:22:40.501Z,65.83
2022-10-11T07:26:21.436Z,66.19
2022-10-11T07:30:09.939Z,66.04
2022-10-11T07:33:59.038Z,66.08
2022-10-11T07:37:37.614Z,66.09
2022-10-11T07:41:11.974Z,66.14
2022-10-11T07:44:51.500Z,65.69
2022-10-11T07:48:29.635Z,65.64
2022-10-11T07:52:06.761Z,65.69
2022-10-11T07:55:52.655Z,65.87
2022-10-11T07:59:27.856Z,65.58
2022-10-11T08:03:03.342Z,65.20
2022-10-11T08:06:44.025Z,65.26
2022-10-11T08:10:32.181Z,64.62
2022-10-11T08:14:11.424Z,64.62
2022-10-11T08:17:49.030Z,64.24
2022-10-11T08:21:29.347Z,64.27
2022-10-11T08:25:16.228Z,64.28
2022-10-11T08:28:55.411Z,64.18
2022-10-11T08:32:33.923Z,63.64
2022-10-11T08:36:25.971Z,63.68
2022-10-11T08:40:06.675Z,63.31
2022-10-11T08:43:57.136Z,63.55
2022-10-11T08:47:39.190Z,63.65
2022-10-11T08:51:22.367Z,63.44
2022-10-11T08:55:01.061Z,63.29
2022-10-11T08:58:39.787Z,63.00
2022-10-11T09:02:49.231Z,63.01
2022-10-11T09:06:22.368Z,63.17
2022-10-11T09:10:02.366Z,62.73
2022-10-11T09:13:44.161Z,63.20
2022-10-11T09:17:12.328Z,63.28
2022-10-11T09:20:43.491Z,63.37
2022-10-11T09:24:24.535Z,63.15
2022-10-11T09:28:02.228Z,62.89
2022-10-11T09:31:24.929Z,63.05
2022-10-11T09:34:45.552Z,63.09
2022-10-11T09:38:12.766Z,63.16
2022-10-11T09:41:42.823Z,63.81
2022-10-11T09:45:17.882Z,64.44
2022-10-11T09:48:25.005Z,65.14
2022-10-11T09:51:29.930Z,65.19
2022-10-11T09:54:42.653Z,65.55
2022-10-11T09:57:56.551Z,66.01
2022-10-11T10:01:07.644Z,66.38
2022-10-11T10:04:14.163Z,66.57
2022-10-11T10:07:17.905Z,66.65
2022-10-11T10:10:30.264Z,66.46
2022-10-11T10:13:46.341Z,67.31
2022-10-11T10:16:59.181Z,66.55
2022-10-11T10:20:07.455Z,66.53
2022-10-11T10:23:22.807Z,66.58
2022-10-11T10:26:27.860Z,66.55
2022-10-11T10:29:33.165Z,66.93
2022-10-11T10:32:47.547Z,66.60
2022-10-11T10:35:56.616Z,66.78
2022-10-11T10:39:06.900Z,66.28
2022-10-11T10:42:16.560Z,66.22
2022-10-11T10:45:27.802Z,65.95
2022-10-11T10:49:23.266Z,65.83
2022-10-11T10:52:42.963Z,65.96
2022-10-11T10:55:53.223Z,65.77
2022-10-11T10:59:07.011Z,66.06
2022-10-11T11:02:39.762Z,66.02
2022-10-11T11:05:49.510Z,66.47
2022-10-11T11:09:05.016Z,66.17
2022-10-11T11:12:25.063Z,66.27
2022-10-11T11:15:38.087Z,66.35
2022-10-11T11:18:52.511Z,67.13
2022-10-11T11:22:03.478Z,66.96
2022-10-11T11:25:20.955Z,67.83
2022-10-11T11:28:48.331Z,68.31
2022-10-11T11:32:08.841Z,69.09
2022-10-11T11:35:22.750Z,69.41
2022-10-11T11:38:35.439Z,69.36
2022-10-11T11:41:45.477Z,69.35
2022-10-11T11:44:50.881Z,69.53
2022-10-11T11:48:02.045Z,69.36
2022-10-11T11:51:13.095Z,69.37
2022-10-11T11:54:34.094Z,69.92
2022-10-11T11:57:53.721Z,69.43
2022-10-11T12:01:06.832Z,69.31
2022-10-11T12:04:20.345Z,69.32
2022-10-11T12:07:29.326Z,69.32
2022-10-11T12:10:37.229Z,69.58
2022-10-11T12:13:42.518Z,69.96
2022-10-11T12:17:20.815Z,70.17
2022-10-11T12:20:28.826Z,70.11
2022-10-11T12:23:48.301Z,70.70
2022-10-11T12:26:56.791Z,71.02
2022-10-11T12:30:00.819Z,70.86
2022-10-11T12:33:08.069Z,71.14
2022-10-11T12:36:34.884Z,71.52
2022-10-11T12:39:52.963Z,71.42
2022-10-11T12:43:12.161Z,71.98
2022-10-11T12:46:40.520Z,71.23
2022-10-11T12:49:59.875Z,70.44
2022-10-11T12:53:17.602Z,70.97
2022-10-11T12:56:30.551Z,70.82
2022-10-11T12:59:35.114Z,70.29
2022-10-11T13:02:42.994Z,70.16
2022-10-11T13:05:53.505Z,69.56
2022-10-11T13:09:04.224Z,68.78
2022-10-11T13:12:14.202Z,68.92
2022-10-11T13:15:21.614Z,69.70
2022-10-11T13:18:27.617Z,69.54
2022-10-11T13:21:36.262Z,69.21
2022-10-11T13:24:41.203Z,68.44
2022-10-11T13:27:47.030Z,68.33
2022-10-11T13:30:55.671Z,68.86
2022-10-11T13:34:00.264Z,68.44
2022-10-11T13:37:04.326Z,68.05
2022-10-11T13:40:14.546Z,67.61
2022-10-11T13:43:28.395Z,67.71
2022-10-11T13:46:34.487Z,68.13
2022-10-11T13:49:40.186Z,67.97
2022-10-11T13:52:58.154Z,68.52
2022-10-11T13:56:05.241Z,67.55
2022-10-11T13:59:19.114Z,67.03
2022-10-11T14:02:25.422Z,66.38
2022-10-11T14:05:35.072Z,66.43
2022-10-11T14:08:40.667Z,67.98
2022-10-11T14:11:44.290Z,68.69
2022-10-11T14:14:49.564Z,69.55
2022-10-11T14:17:53.757Z,69.32
2022-10-11T14:21:25.187Z,70.31
2022-10-11T14:24:32.236Z,70.55
2022-10-11T14:27:39.509Z,70.58
2022-10-11T14:31:06.643Z,70.78
2022-10-11T14:34:18.959Z,70.96
2022-10-11T14:37:27.065Z,70.84
2022-10-11T14:45:49.865Z,71.60
2022-10-11T14:48:56.741Z,71.27
2022-10-11T14:52:00.894Z,71.49
2022-10-11T14:55:05.163Z,71.42
2022-10-11T14:59:17.972Z,71.38
2022-10-11T15:02:21.767Z,70.65
2022-10-11T15:05:33.931Z,70.81
2022-10-11T15:08:38.083Z,71.13
2022-10-11T15:11:41.781Z,71.06
2022-10-11T15:14:45.607Z,71.03
2022-10-11T15:17:50.391Z,70.86
2022-10-11T15:20:58.045Z,70.60
2022-10-11T15:24:01.826Z,70.74
2022-10-11T15:27:05.756Z,70.87
2022-10-11T15:30:19.474Z,70.46
2022-10-11T15:33:24.479Z,70.57
2022-10-11T15:36:30.291Z,70.60
2022-10-11T15:39:34.973Z,70.19
2022-10-11T15:42:38.734Z,69.97
2022-10-11T15:46:09.094Z,70.48
2022-10-11T15:49:14.959Z,70.34
2022-10-11T15:52:20.329Z,71.15
2022-10-11T15:55:23.821Z,70.73
2022-10-11T15:58:31.620Z,70.59
2022-10-11T16:01:35.246Z,70.50
2022-10-11T16:04:42.686Z,70.31
2022-10-11T16:07:52.591Z,70.50
2022-10-11T16:11:01.915Z,71.15
2022-10-11T16:14:06.252Z,70.92
2022-10-11T16:17:10.071Z,70.60
2022-10-11T16:20:14.372Z,70.13
2022-10-11T16:23:21.183Z,70.05
2022-10-11T16:26:24.587Z,70.34
2022-10-11T16:29:28.129Z,69.72
2022-10-11T16:32:33.933Z,70.03
2022-10-11T16:35:37.695Z,69.74
2022-10-11T16:38:42.557Z,69.72
2022-10-11T16:41:47.189Z,69.68
2022-10-11T16:44:50.902Z,69.63
2022-10-11T16:47:54.555Z,69.45
2022-10-11T16:51:06.637Z,69.46
2022-10-11T16:54:15.530Z,69.96
2022-10-11T16:57:21.647Z,69.66
2022-10-11T17:00:25.859Z,69.48
2022-10-11T17:03:29.582Z,69.81
2022-10-11T17:06:34.001Z,69.87
2022-10-11T17:09:43.793Z,69.73
2022-10-11T17:12:50.306Z,69.69
2022-10-11T17:15:53.922Z,69.67
2022-10-11T17:18:57.961Z,69.67
2022-10-11T17:22:01.664Z,69.83
2022-10-11T17:25:08.298Z,70.00
2022-10-11T17:28:12.475Z,70.03
2022-10-11T17:31:16.314Z,70.11
2022-10-11T17:34:19.984Z,70.22
2022-10-11T17:37:24.197Z,70.45
2022-10-11T17:40:29.379Z,70.92
2022-10-11T17:43:33.463Z,70.66
2022-10-11T17:46:37.594Z,70.60
2022-10-11T17:49:41.597Z,70.52
2022-10-11T17:52:45.361Z,70.52
2022-10-11T17:55:51.212Z,70.92
2022-10-11T17:58:56.557Z,70.54
2022-10-11T18:02:00.417Z,70.49
2022-10-11T18:05:04.315Z,70.86
2022-10-11T18:08:08.873Z,70.56
2022-10-11T18:11:16.014Z,70.14
2022-10-11T18:14:20.009Z,70.52
2022-10-11T18:17:24.028Z,70.20
2022-10-11T18:20:31.050Z,70.21
2022-10-11T18:23:37.446Z,70.52
2022-10-11T18:26:43.447Z,70.92
2022-10-11T18:30:11.909Z,70.84
2022-10-11T18:33:16.692Z,70.52
2022-10-11T18:36:22.742Z,70.70
2022-10-11T18:39:26.503Z,70.70
2022-10-11T18:42:31.386Z,70.58
2022-10-11T18:45:35.947Z,70.74
2022-10-11T18:48:43.470Z,71.08
2022-10-11T18:51:49.330Z,71.04
2022-10-11T18:54:56.581Z,71.17
2022-10-11T18:58:05.417Z,71.08
2022-10-11T19:01:13.577Z,71.86
2022-10-11T19:04:18.997Z,71.83
2022-10-11T19:07:24.119Z,71.29
2022-10-11T19:10:53.967Z,71.88
2022-10-11T19:14:07.183Z,71.89
2022-10-11T19:17:12.522Z,72.11
2022-10-11T19:20:17.450Z,71.78
2022-10-11T19:23:22.363Z,71.73
2022-10-11T19:26:29.205Z,71.55
2022-10-11T19:29:35.131Z,71.16
2022-10-11T19:32:38.760Z,71.29
2022-10-11T19:35:53.857Z,71.52
2022-10-11T19:38:57.780Z,71.14
2022-10-11T19:42:05.050Z,71.18
2022-10-11T19:45:10.763Z,71.06
2022-10-11T19:48:15.025Z,71.02
2022-10-11T19:51:21.757Z,71.53
2022-10-11T19:54:25.717Z,71.08
2022-10-11T19:57:31.619Z,71.29
2022-10-11T20:00:37.423Z,71.11
2022-10-11T20:03:40.878Z,71.40
2022-10-11T20:06:45.273Z,71.30
2022-10-11T20:09:49.065Z,71.10
2022-10-11T20:13:18.004Z,71.18
2022-10-11T20:16:26.103Z,71.33
2022-10-11T20:19:31.321Z,71.79
2022-10-11T20:22:35.566Z,71.65
2022-10-11T20:25:39.721Z,71.55
2022-10-11T20:28:44.294Z,71.57
2022-10-11T20:31:50.035Z,71.50
2022-10-11T20:35:23.365Z,71.42
2022-10-11T20:38:33.183Z,71.45
2022-10-11T20:42:25.303Z,71.44
2022-10-11T20:45:46.440Z,71.81
2022-10-11T20:48:58.848Z,71.75
2022-10-11T20:52:23.801Z,71.42
2022-10-11T20:55:27.273Z,71.52
2022-10-11T20:58:31.047Z,71.15
2022-10-11T21:01:37.158Z,71.16
2022-10-11T21:04:42.860Z,70.99
2022-10-11T21:07:46.493Z,71.30
2022-10-11T21:10:52.837Z,71.42
2022-10-11T21:13:57.420Z,71.52
2022-10-11T21:17:01.230Z,71.47
2022-10-11T21:20:07.412Z,71.61
2022-10-11T21:23:11.794Z,71.28
2022-10-11T21:26:18.047Z,71.62
2022-10-11T21:29:22.252Z,71.71
2022-10-11T21:32:25.812Z,71.95
2022-10-11T21:35:32.294Z,72.64
2022-10-11T21:38:36.586Z,72.29
2022-10-11T21:41:42.304Z,72.21
2022-10-11T21:44:45.771Z,71.67
2022-10-11T21:47:49.926Z,71.89
2022-10-11T21:50:56.270Z,71.63
2022-10-11T21:54:01.443Z,71.37
2022-10-11T21:57:04.951Z,71.43
2022-10-11T22:00:10.043Z,71.73
2022-10-11T22:03:16.885Z,71.37
2022-10-11T22:06:22.776Z,71.44
2022-10-11T22:09:27.777Z,71.86
2022-10-11T22:12:31.810Z,71.97
2022-10-11T22:15:35.886Z,71.99
2022-10-11T22:18:39.765Z,71.55
2022-10-11T22:21:45.362Z,71.54
2022-10-11T22:24:50.961Z,71.57
2022-10-11T22:27:54.413Z,71.86
2022-10-11T22:30:58.276Z,71.99
2022-10-11T22:34:02.991Z,71.73
2022-10-11T22:37:08.201Z,71.80
2022-10-11T22:40:12.065Z,71.35
2022-10-11T22:43:16.218Z,71.53
2022-10-11T22:46:20.265Z,71.76
2022-10-11T22:49:24.103Z,71.85
2022-10-11T22:52:29.243Z,71.64
2022-10-11T22:55:33.277Z,71.62
2022-10-11T22:58:37.141Z,71.44
2022-10-11T23:01:40.927Z,71.91
2022-10-11T23:04:44.495Z,71.67
2022-10-11T23:07:50.128Z,72.32
2022-10-11T23:10:54.369Z,72.58
2022-10-11T23:13:58.113Z,72.54
2022-10-11T23:17:01.595Z,72.11
2022-10-11T23:20:06.717Z,71.91
2022-10-11T23:23:11.592Z,71.87
2022-10-11T23:26:17.152Z,71.89
2022-10-11T23:29:21.135Z,71.79
2022-10-11T23:32:25.397Z,71.92
2022-10-11T23:35:28.841Z,72.39
2022-10-11T23:38:34.176Z,71.84
2022-10-11T23:41:40.755Z,71.96
2022-10-11T23:44:44.918Z,71.99
2022-10-11T23:47:48.449Z,71.89
2022-10-11T23:50:52.341Z,71.63
2022-10-11T23:53:57.195Z,71.52
2022-10-11T23:57:01.183Z,71.82
